Flight Track Log - Related Links

Times and Time Zones

All times are in EST time to prevent confusion due to time zone crossing. See the DAL1162 flight status page for this flight to view local times or setup timezone preferences in your user account.


Time Position Orientation Groundspeed Altitude Reporting Facility
EST Latitude Longitude Course Direction KTS MPH feet Rate Location/Type
Thu 12:45:45 AM 33.9333 -118.4333 40° Northeast 192 221 1,500  Level Southern California TRACON
Thu 12:46:53 AM 33.8933 -118.5092 238° Southwest 232 267 4,200 2,815 Climbing Los Angeles Center
Thu 12:47:55 AM 33.8367 -118.5564 215° Southwest 261 300 7,600 2,927 Climbing Los Angeles Center
Thu 12:48:00 AM 33.6416 -118.3540 116° Southeast  Level FlightAware Approximate
Thu 12:48:56 AM 33.7650 -118.5378 168° South 281 323 10,200  Level Los Angeles Center
Thu 12:49:00 AM 33.6334 -118.1957 90° East  Level FlightAware Approximate
Thu 12:49:57 AM 33.6869 -118.4928 154° Southeast 350 403 12,400  Level Los Angeles Center
Thu 12:50:00 AM 33.7238 -118.0929 40° Northeast  Level FlightAware Approximate
Thu 12:50:58 AM 33.6869 -118.3506 90° East 378 435 15,400  Level Los Angeles Center
Thu 12:52:00 AM 33.7275 -118.2322 68° East 399 459 17,800 1,756 Climbing Los Angeles Center
Thu 12:53:01 AM 33.7694 -118.0989 69° East 428 493 19,000 1,623 Climbing Los Angeles Center
Thu 12:54:02 AM 33.8547 -117.9881 47° Northeast 458 527 21,100 1,967 Climbing Los Angeles Center
Thu 12:55:03 AM 33.9564 -117.8989 36° Northeast 456 525 23,000 2,049 Climbing Los Angeles Center
Thu 12:56:05 AM 34.0833 -117.7811 38° Northeast 473 544 25,300 1,951 Climbing Los Angeles Center
Thu 12:57:06 AM 34.1781 -117.6569 47° Northeast 498 573 27,000 2,066 Climbing Los Angeles Center
Thu 12:58:07 AM 34.2733 -117.5289 48° Northeast 510 587 29,500 2,311 Climbing Los Angeles Center
Thu 12:59:08 AM 34.3639 -117.4036 49° Northeast 502 578 31,700 1,951 Climbing Los Angeles Center
Thu 01:00:10 AM 34.4572 -117.2764 48° Northeast 489 563 33,500 1,467 Climbing Los Angeles Center
Thu 01:01:23 AM 34.5633 -117.1289 49° Northeast 488 562 35,000 672 Climbing Los Angeles Center
Thu 01:02:24 AM 34.6525 -117.0061 49° Northeast 488 562 35,000  Level Los Angeles Center
Thu 01:03:26 AM 34.7414 -116.8833 49° Northeast 488 562 35,000  Level Los Angeles Center
Thu 01:04:27 AM 34.8311 -116.7575 49° Northeast 494 568 35,000  Level Los Angeles Center
Thu 01:05:28 AM 34.9211 -116.6314 49° Northeast 497 572 35,000  Level Los Angeles Center
Thu 01:06:29 AM 35.0147 -116.5078 47° Northeast 499 574 35,000  Level Los Angeles Center
Thu 01:07:30 AM 35.1303 -116.3636 46° Northeast 497 572 35,000  Level Los Angeles Center
Thu 01:08:31 AM 35.2278 -116.2442 45° Northeast 497 572 35,000  Level Los Angeles Center
Thu 01:09:32 AM 35.3214 -116.1217 47° Northeast 498 573 35,000  Level Los Angeles Center
Thu 01:10:33 AM 35.4186 -116.0014 45° Northeast 498 573 35,000  Level Los Angeles Center
Thu 01:11:35 AM 35.5208 -115.8744 45° Northeast 498 573 35,000  Level Los Angeles Center
Thu 01:12:36 AM 35.6164 -115.7519 46° Northeast 499 574 35,000  Level Los Angeles Center
Thu 01:13:37 AM 35.7106 -115.6333 46° Northeast 490 564 35,000  Level Los Angeles Center
Thu 01:14:38 AM 35.8058 -115.5119 46° Northeast 495 570 35,000  Level Los Angeles Center
Thu 01:15:39 AM 35.8994 -115.3911 46° Northeast 493 567 35,000  Level Los Angeles Center
Thu 01:16:40 AM 35.9936 -115.2700 46° Northeast 494 568 35,000  Level Los Angeles Center
Thu 01:17:41 AM 36.0928 -115.1122 52° Northeast 512 589 35,000  Level Los Angeles Center
Thu 01:18:42 AM 36.1439 -114.9503 69° East 510 587 35,000  Level Los Angeles Center
Thu 01:19:44 AM 36.1931 -114.7864 70° East 511 588 35,000  Level Los Angeles Center
Thu 01:20:45 AM 36.2425 -114.6244 69° East 507 583 35,000  Level Los Angeles Center
Thu 01:21:46 AM 36.2925 -114.4622 69° East 504 580 35,000  Level Los Angeles Center
Thu 01:22:47 AM 36.3411 -114.3011 69° East 502 578 35,000  Level Los Angeles Center
Thu 01:23:48 AM 36.3894 -114.1408 69° East 499 574 35,000  Level Los Angeles Center
Thu 01:24:49 AM 36.4372 -113.9806 70° East 497 572 35,000  Level Los Angeles Center
Thu 01:25:50 AM 36.4853 -113.8208 69° East 496 571 35,000  Level Los Angeles Center
Thu 01:26:51 AM 36.5383 -113.6422 70° East 496 571 35,000  Level Los Angeles Center
Thu 01:27:51 AM 36.5853 -113.4833 70° East 493 567 35,000  Level Los Angeles Center
Thu 01:28:52 AM 36.6311 -113.3225 70° East 494 568 35,000  Level Los Angeles Center
Thu 01:29:53 AM 36.6781 -113.1622 70° East 496 571 35,000  Level Los Angeles Center
Thu 01:30:54 AM 36.7247 -113.0022 70° East 495 570 35,000  Level Los Angeles Center
Thu 01:31:55 AM 36.7711 -112.8403 70° East 497 572 35,000  Level Los Angeles Center
Thu 01:32:56 AM 36.8164 -112.6769 71° East 501 577 35,000  Level Los Angeles Center
Thu 01:33:57 AM 36.8733 -112.4811 70° East 504 580 35,000  Level Los Angeles Center
Thu 01:34:58 AM 36.9194 -112.3158 71° East 507 583 35,000  Level Los Angeles Center
Thu 01:35:59 AM 36.9653 -112.1514 71° East 506 582 35,000  Level Los Angeles Center
Thu 01:37:00 AM 37.0108 -111.9867 71° East 505 581 35,000  Level Los Angeles Center
Thu 01:38:01 AM 37.0572 -111.8217 71° East 505 581 35,000  Level Los Angeles Center
Thu 01:39:02 AM 37.1008 -111.6578 72° East 500 575 35,000  Level Los Angeles Center
Thu 01:39:38 AM 37.1264 -111.5603 72° East 499 574 35,000  Level Denver Center
Thu 01:40:38 AM 37.1736 -111.3950 70° East 504 580 35,000  Level Denver Center
Thu 01:41:39 AM 37.2167 -111.2328 72° East 494 568 35,000  Level Denver Center
Thu 01:42:39 AM 37.2608 -111.0683 71° East 498 573 35,000  Level Denver Center
Thu 01:43:39 AM 37.3047 -110.9036 71° East 499 574 35,000  Level Denver Center
Thu 01:44:40 AM 37.3478 -110.7389 72° East 498 573 35,000  Level Denver Center
Thu 01:45:40 AM 37.3917 -110.5747 71° East 498 573 35,000  Level Denver Center
Thu 01:46:40 AM 37.4347 -110.4083 72° East 502 578 35,000  Level Denver Center
Thu 01:47:41 AM 37.4783 -110.2425 72° East 500 575 35,000  Level Denver Center
Thu 01:48:41 AM 37.5228 -110.0697 72° East 501 577 35,000  Level Denver Center
Thu 01:49:41 AM 37.5706 -109.8825 72° East 502 578 35,000  Level Denver Center
Thu 01:50:42 AM 37.6111 -109.7225 72° East 502 578 35,000  Level Denver Center
Thu 01:51:42 AM 37.6517 -109.5606 72° East 503 579 35,000  Level Denver Center
Thu 01:52:42 AM 37.6986 -109.3731 72° East 501 577 35,000  Level Denver Center
Thu 01:53:43 AM 37.7394 -109.2119 72° East 502 578 35,000  Level Denver Center
Thu 01:54:43 AM 37.7792 -109.0503 73° East 503 579 35,000  Level Denver Center
Thu 01:55:43 AM 37.8222 -108.8933 71° East 497 572 35,000  Level Denver Center
Thu 01:56:44 AM 37.8839 -108.7117 67° East 502 578 35,000  Level Denver Center
Thu 01:57:44 AM 37.9375 -108.5611 66° East 496 571 35,000  Level Denver Center
Thu 01:58:44 AM 37.9897 -108.4092 66° East 493 567 35,000  Level Denver Center
Thu 01:59:44 AM 38.0414 -108.2578 67° East 489 563 35,000  Level Denver Center
Thu 02:00:45 AM 38.1036 -108.0783 66° East 489 563 35,000  Level Denver Center
Thu 02:01:45 AM 38.1542 -107.9281 67° East 486 559 35,000  Level Denver Center
Thu 02:02:45 AM 38.2061 -107.7772 66° East 487 560 35,000  Level Denver Center
Thu 02:03:46 AM 38.2656 -107.5992 67° East 489 563 35,000  Level Denver Center
Thu 02:04:46 AM 38.3169 -107.4475 67° East 489 563 35,000  Level Denver Center
Thu 02:05:46 AM 38.3689 -107.2919 67° East 496 571 35,000  Level Denver Center
Thu 02:06:47 AM 38.4233 -107.1239 67° East 494 568 35,000  Level Denver Center
Thu 02:07:47 AM 38.4694 -106.9594 70° East 495 570 35,000  Level Denver Center
Thu 02:08:47 AM 38.5053 -106.7906 75° East 495 570 35,000  Level Denver Center
Thu 02:09:48 AM 38.5414 -106.6214 75° East 496 571 35,000  Level Denver Center
Thu 02:10:48 AM 38.5767 -106.4519 75° East 496 571 35,000  Level Denver Center
Thu 02:11:48 AM 38.6131 -106.2794 75° East 493 567 35,000  Level Denver Center
Thu 02:13:01 AM 38.6500 -106.1053 75° East 496 571 35,000  Level Denver Center
Thu 02:14:01 AM 38.6914 -105.9006 75° East 496 571 35,000  Level Denver Center
Thu 02:15:01 AM 38.7275 -105.7314 75° East 495 570 35,000  Level Denver Center
Thu 02:16:02 AM 38.7611 -105.5614 76° East 495 570 35,000  Level Denver Center
Thu 02:17:02 AM 38.7956 -105.3903 75° East 499 574 35,000  Level Denver Center
Thu 02:18:02 AM 38.8281 -105.2214 76° East 493 567 35,000  Level Denver Center
Thu 02:19:14 AM 38.8625 -105.0511 75° East 496 571 35,000  Level Denver Center
Thu 02:20:15 AM 38.9022 -104.8506 76° East 489 563 35,000  Level Denver Center
Thu 02:21:15 AM 38.9361 -104.6811 76° East 493 567 35,000  Level Denver Center
Thu 02:22:15 AM 38.9778 -104.5178 72° East 488 562 35,000  Level Denver Center
Thu 02:24:16 AM 39.0731 -104.1919 69° East 490 564 35,000  Level Denver Center
Thu 02:25:16 AM 39.1194 -104.0294 70° East 489 563 35,000  Level Denver Center
Thu 02:26:29 AM 39.1650 -103.8669 70° East 487 560 35,000  Level Denver Center
Thu 02:27:29 AM 39.2206 -103.6722 70° East 486 559 35,000  Level Denver Center
Thu 02:28:29 AM 39.2675 -103.5072 70° East 490 564 35,000  Level Denver Center
Thu 02:29:29 AM 39.3131 -103.3419 70° East 491 565 35,000  Level Denver Center
Thu 02:30:30 AM 39.3678 -103.1453 70° East 488 562 35,000  Level Denver Center
Thu 02:31:30 AM 39.4139 -102.9792 70° East 491 565 35,000  Level Denver Center
Thu 02:32:30 AM 39.4586 -102.8131 71° East 490 564 35,000  Level Denver Center
Thu 02:33:30 AM 39.5047 -102.6478 70° East 491 565 35,000  Level Denver Center
Thu 02:34:31 AM 39.5492 -102.4817 71° East 490 564 35,000  Level Denver Center
Thu 02:35:31 AM 39.5847 -102.3478 71° East 492 566 35,000  Level Denver Center
Thu 02:36:31 AM 39.6275 -102.1872 71° East 492 566 35,000  Level Denver Center
Thu 02:37:32 AM 39.6842 -101.9742 71° East 492 566 35,000  Level Denver Center
Thu 02:38:32 AM 39.7267 -101.8136 71° East 491 565 35,000  Level Denver Center
Thu 02:39:32 AM 39.7694 -101.6539 71° East 491 565 35,000  Level Denver Center
Thu 02:40:32 AM 39.8117 -101.4950 71° East 488 562 35,000  Level Denver Center
Thu 02:41:33 AM 39.8592 -101.3061 72° East 491 565 35,000  Level Denver Center
Thu 02:42:33 AM 39.8997 -101.1442 72° East 492 566 35,000  Level Denver Center
Thu 02:43:33 AM 39.9408 -100.9839 71° East 491 565 35,000  Level Denver Center
Thu 02:44:33 AM 39.9883 -100.7944 72° East 493 567 35,000  Level Denver Center
Thu 02:45:34 AM 40.0294 -100.6331 72° East 493 567 35,000  Level Denver Center
Thu 02:46:34 AM 40.0700 -100.4708 72° East 494 568 35,000  Level Denver Center
Thu 02:47:34 AM 40.1164 -100.2817 72° East 493 567 35,000  Level Denver Center
Thu 02:48:35 AM 40.1567 -100.1161 72° East 498 573 35,000  Level Denver Center
Thu 02:49:35 AM 40.1975 -99.9511 72° East 501 577 35,000  Level Denver Center
Thu 02:50:35 AM 40.2378 -99.7825 73° East 500 575 35,000  Level Denver Center
Thu 02:51:35 AM 40.2794 -99.6089 72° East 501 577 35,000  Level Denver Center
Thu 02:52:36 AM 40.3206 -99.4344 73° East 501 577 35,000  Level Denver Center
Thu 02:53:36 AM 40.3633 -99.2617 72° East 500 575 35,000  Level Denver Center
Thu 02:54:22 AM 40.3947 -99.1244 73° East 499 574 35,000  Level Minneapolis Center
Thu 02:55:22 AM 40.4347 -98.9536 73° East 495 570 35,000  Level Minneapolis Center
Thu 02:56:22 AM 40.4739 -98.7831 73° East 492 566 35,000  Level Minneapolis Center
Thu 02:57:22 AM 40.5133 -98.6133 73° East 490 564 35,000  Level Minneapolis Center
Thu 02:58:23 AM 40.5514 -98.4436 74° East 489 563 35,000  Level Minneapolis Center
Thu 02:59:24 AM 40.5894 -98.2742 73° East 486 559 35,000  Level Minneapolis Center
Thu 03:00:25 AM 40.6278 -98.1056 73° East 484 557 35,000  Level Minneapolis Center
Thu 03:01:25 AM 40.6647 -97.9353 74° East 485 558 35,000  Level Minneapolis Center
Thu 03:02:25 AM 40.7017 -97.7639 74° East 487 560 35,000  Level Minneapolis Center
Thu 03:03:26 AM 40.7400 -97.5911 74° East 490 564 35,000  Level Minneapolis Center
Thu 03:04:26 AM 40.7853 -97.3825 74° East 494 568 35,000  Level Minneapolis Center
Thu 03:05:26 AM 40.8225 -97.2125 74° East 496 571 35,000  Level Minneapolis Center
Thu 03:06:26 AM 40.8600 -97.0383 74° East 495 570 35,000  Level Minneapolis Center
Thu 03:07:27 AM 40.8972 -96.8644 74° East 494 568 35,000  Level Minneapolis Center
Thu 03:08:27 AM 40.9319 -96.6897 75° East 493 567 35,000  Level Minneapolis Center
Thu 03:09:27 AM 40.9553 -96.5114 80° East 494 568 35,000  Level Minneapolis Center
Thu 03:10:27 AM 40.9797 -96.3347 80° East 492 566 35,000  Level Minneapolis Center
Thu 03:11:28 AM 41.0031 -96.1578 80° East 493 567 35,000  Level Minneapolis Center
Thu 03:12:28 AM 41.0267 -95.9806 80° East 494 568 35,000  Level Minneapolis Center
Thu 03:13:28 AM 41.0500 -95.8011 80° East 499 574 35,000  Level Minneapolis Center
Thu 03:14:28 AM 41.0736 -95.6214 80° East 501 577 35,000  Level Minneapolis Center
Thu 03:15:29 AM 41.0967 -95.4392 80° East 504 580 35,000  Level Minneapolis Center
Thu 03:16:29 AM 41.1211 -95.2569 80° East 505 581 35,000  Level Minneapolis Center
Thu 03:17:29 AM 41.1425 -95.0733 81° East 506 582 35,000  Level Minneapolis Center
Thu 03:18:29 AM 41.1653 -94.8900 81° East 506 582 35,000  Level Minneapolis Center
Thu 03:19:30 AM 41.1878 -94.7078 81° East 504 580 35,000  Level Minneapolis Center
Thu 03:20:30 AM 41.2092 -94.5244 81° East 503 579 35,000  Level Minneapolis Center
Thu 03:21:30 AM 41.2311 -94.3414 81° East 504 580 35,000  Level Minneapolis Center
Thu 03:22:30 AM 41.2533 -94.1436 81° East 501 577 35,000  Level Minneapolis Center
Thu 03:23:31 AM 41.2744 -93.9625 81° East 500 575 35,000  Level Minneapolis Center
Thu 03:24:31 AM 41.2956 -93.7808 81° East 500 575 35,000 450 Level Minneapolis Center
Thu 03:25:31 AM 41.3150 -93.6006 82° East 497 572 35,900 900 Climbing Minneapolis Center
Thu 03:26:31 AM 41.3367 -93.4158 81° East 503 579 36,800 545 Climbing Minneapolis Center
Thu 03:27:32 AM 41.3572 -93.2278 82° East 510 587 37,000 99 Climbing Minneapolis Center
Thu 03:28:32 AM 41.3772 -93.0414 82° East 512 589 37,000  Level Minneapolis Center
Thu 03:29:32 AM 41.3967 -92.8539 82° East 512 589 37,000  Level Minneapolis Center
Thu 03:30:33 AM 41.4167 -92.6678 82° East 511 588 37,000  Level Minneapolis Center
Thu 03:31:33 AM 41.4353 -92.4811 82° East 510 587 37,000  Level Minneapolis Center
Thu 03:32:33 AM 41.4536 -92.2933 83° East 511 588 37,000  Level Minneapolis Center
Thu 03:33:33 AM 41.4725 -92.1053 82° East 513 590 37,000  Level Minneapolis Center
Thu 03:34:34 AM 41.4903 -91.9153 83° East 515 593 37,000  Level Minneapolis Center
Thu 03:35:34 AM 41.5111 -91.7094 82° East 517 595 37,000  Level Minneapolis Center
Thu 03:36:50 AM 41.5222 -91.4844 86° East 516 594 37,000  Level Chicago Center
Thu 03:37:50 AM 41.5261 -91.2956 88° East 516 594 37,000  Level Chicago Center
Thu 03:38:50 AM 41.5294 -91.1067 89° East 515 593 37,000  Level Chicago Center
Thu 03:39:50 AM 41.5328 -90.9178 89° East 515 593 37,000  Level Chicago Center
Thu 03:40:51 AM 41.5361 -90.7275 89° East 517 595 37,000  Level Chicago Center
Thu 03:41:51 AM 41.5386 -90.5139 89° East 516 594 37,000  Level Chicago Center
Thu 03:42:51 AM 41.5414 -90.3203 89° East 518 596 37,000  Level Chicago Center
Thu 03:43:51 AM 41.5431 -90.1306 89° East 512 589 37,000  Level Chicago Center
Thu 03:44:51 AM 41.5450 -89.9367 89° East 517 595 37,000  Level Chicago Center
Thu 03:45:52 AM 41.5469 -89.7439 89° East 517 595 37,000  Level Chicago Center
Thu 03:46:52 AM 41.5481 -89.5517 89° East 515 593 37,000  Level Chicago Center
Thu 03:47:52 AM 41.5475 -89.3783 90° East 518 596 37,000  Level Chicago Center
Thu 03:48:52 AM 41.5492 -89.1883 89° East 516 594 37,000  Level Chicago Center
Thu 03:49:52 AM 41.5494 -88.9994 90° East 513 590 37,000  Level Chicago Center
Thu 03:50:53 AM 41.5494 -88.8092 90° East 513 590 37,000  Level Chicago Center
Thu 03:51:53 AM 41.5492 -88.6194 90° East 512 589 37,000  Level Chicago Center
Thu 03:52:53 AM 41.5478 -88.4300 90° East 512 589 37,000  Level Chicago Center
Thu 03:53:53 AM 41.5558 -88.2383 87° East 517 595 37,000  Level Chicago Center
Thu 03:54:54 AM 41.5794 -88.0436 81° East 523 602 37,000  Level Chicago Center
Thu 03:55:54 AM 41.6019 -87.8492 81° East 522 601 37,000  Level Chicago Center
Thu 03:56:54 AM 41.6233 -87.6572 81° East 520 598 37,000  Level Chicago Center
Thu 03:57:54 AM 41.6453 -87.4667 81° East 520 598 37,000  Level Chicago Center
Thu 03:58:54 AM 41.6664 -87.2744 82° East 523 602 37,000  Level Chicago Center
Thu 03:59:55 AM 41.6881 -87.0828 81° East 524 603 37,000  Level Chicago Center
Thu 04:00:55 AM 41.7075 -86.8908 82° East 523 602 37,000  Level Chicago Center
Thu 04:01:55 AM 41.7281 -86.6997 82° East 523 602 37,000  Level Chicago Center
Thu 04:02:55 AM 41.7481 -86.5114 82° East 523 602 37,000  Level Chicago Center
Thu 04:03:56 AM 41.7667 -86.3189 83° East 523 602 37,000  Level Chicago Center
Thu 04:04:56 AM 41.7717 -86.1233 88° East 525 604 37,000  Level Chicago Center
Thu 04:05:56 AM 41.7819 -85.9308 86° East 521 600 37,000  Level Chicago Center
Thu 04:06:56 AM 41.7911 -85.7367 86° East 520 598 37,000  Level Chicago Center
Thu 04:07:56 AM 41.7992 -85.5389 87° East 523 602 37,000  Level Chicago Center
Thu 04:08:57 AM 41.8072 -85.3403 87° East 523 602 37,000  Level Chicago Center
Thu 04:09:57 AM 41.8161 -85.1428 86° East 522 601 37,000  Level Chicago Center
Thu 04:10:57 AM 41.8228 -84.9481 87° East 522 601 37,000  Level Chicago Center
Thu 04:11:57 AM 41.8297 -84.7486 87° East 534 615 37,000  Level Chicago Center
Thu 04:12:58 AM 41.8367 -84.5547 87° East 525 604 37,000  Level Chicago Center
Thu 04:13:35 AM 41.8408 -84.4375 87° East 526 605 37,000  Level Cleveland Center
Thu 04:14:35 AM 41.8467 -84.2247 88° East 527 606 37,000  Level Cleveland Center
Thu 04:15:35 AM 41.8531 -84.0311 87° East 525 604 37,000  Level Cleveland Center
Thu 04:16:36 AM 41.8581 -83.8369 88° East 525 604 37,000  Level Cleveland Center
Thu 04:17:36 AM 41.8633 -83.6436 88° East 524 603 37,000  Level Cleveland Center
Thu 04:18:36 AM 41.8686 -83.4489 88° East 528 608 37,000  Level Cleveland Center
Thu 04:19:36 AM 41.8731 -83.2522 88° East 535 616 37,000  Level Cleveland Center
Thu 04:20:37 AM 41.8775 -83.0550 88° East 535 616 37,000  Level Cleveland Center
Thu 04:21:37 AM 41.8819 -82.8556 88° East 538 619 37,000  Level Cleveland Center
Thu 04:22:37 AM 41.8844 -82.6558 89° East 539 620 37,000  Level Cleveland Center
Thu 04:23:37 AM 41.8881 -82.4550 89° East 542 624 37,000  Level Cleveland Center
Thu 04:24:37 AM 41.8903 -82.2553 89° East 540 621 37,000  Level Cleveland Center
Thu 04:25:38 AM 41.8936 -82.0331 89° East 542 624 37,000  Level Cleveland Center
Thu 04:26:38 AM 41.8953 -81.8289 89° East 541 623 37,000  Level Cleveland Center
Thu 04:27:38 AM 41.8964 -81.6261 90° East 537 618 37,000  Level Cleveland Center
Thu 04:28:38 AM 41.8981 -81.4564 89° East 539 620 37,000  Level Cleveland Center
Thu 04:29:39 AM 41.8989 -81.2531 90° East 538 619 37,000  Level Cleveland Center
Thu 04:30:39 AM 41.9006 -81.0539 89° East 531 611 37,000  Level Cleveland Center
Thu 04:31:39 AM 41.9008 -80.8572 90° East 522 601 37,000  Level Cleveland Center
Thu 04:32:39 AM 41.9019 -80.6614 89° East 520 598 37,000  Level Cleveland Center
Thu 04:33:40 AM 41.9011 -80.4700 90° East 510 587 37,000  Level Cleveland Center
Thu 04:34:40 AM 41.9003 -80.2783 90° East 509 586 37,000  Level Cleveland Center
Thu 04:35:40 AM 41.8994 -80.0878 90° East 506 582 37,000  Level Cleveland Center
Thu 04:36:40 AM 41.8983 -79.8975 90° East 506 582 37,000  Level Cleveland Center
Thu 04:37:41 AM 41.8972 -79.7064 90° East 507 583 37,000  Level Cleveland Center
Thu 04:38:41 AM 41.8947 -79.5386 91° East 501 577 37,000  Level Cleveland Center
Thu 04:39:41 AM 41.8919 -79.3114 91° East 508 585 37,000  Level Cleveland Center
Thu 04:40:41 AM 41.8889 -79.1469 91° East 505 581 37,000  Level Cleveland Center
Thu 04:41:42 AM 41.8864 -78.9581 91° East 508 585 37,000  Level Cleveland Center
Thu 04:42:42 AM 41.8842 -78.7464 91° East 505 581 37,000  Level Cleveland Center
Thu 04:43:42 AM 41.8803 -78.5578 92° East 506 582 37,000  Level Cleveland Center
Thu 04:44:43 AM 41.8767 -78.3694 91° East 505 581 37,000  Level Cleveland Center
Thu 04:45:43 AM 41.8725 -78.1822 92° East 504 580 37,000  Level Cleveland Center
Thu 04:46:43 AM 41.8683 -77.9950 92° East 504 580 37,000  Level Cleveland Center
Thu 04:47:33 AM 41.8583 -77.8475 95° East 503 579 37,000  Level New York Center
Thu 04:48:33 AM 41.8169 -77.6675 107° East 503 579 37,000  Level New York Center
Thu 04:49:33 AM 41.7686 -77.4928 110° East 498 573 37,000  Level New York Center
Thu 04:50:33 AM 41.7219 -77.3214 110° East 498 573 37,000  Level New York Center
Thu 04:51:33 AM 41.6772 -77.1475 109° East 498 573 37,000  Level New York Center
Thu 04:52:33 AM 41.6300 -76.9764 110° East 498 573 37,000  Level New York Center
Thu 04:53:33 AM 41.5825 -76.8056 110° East 493 567 37,000  Level New York Center
Thu 04:54:33 AM 41.5442 -76.6581 109° East 485 558 37,000  Level New York Center
Thu 04:55:33 AM 41.5003 -76.4936 110° East 479 551 37,000  Level New York Center
Thu 04:56:33 AM 41.4467 -76.3064 111° Southeast 484 557 37,000 -250 Level New York Center
Thu 04:57:33 AM 41.3981 -76.1364 111° Southeast 484 557 36,500 -1,750 Descending New York Center
Thu 04:58:33 AM 41.3514 -75.9667 110° East 484 557 33,500 -3,000 Descending New York Center
Thu 04:59:33 AM 41.3025 -75.7972 111° Southeast 479 551 30,500 -3,000 Descending New York Center
Thu 05:00:33 AM 41.2494 -75.6222 112° Southeast 491 565 27,500 -2,700 Descending New York Center
Thu 05:01:33 AM 41.1956 -75.4611 114° Southeast 491 565 25,100 -2,300 Descending New York Center
Thu 05:02:33 AM 41.1456 -75.3033 113° Southeast 477 549 22,900 -1,850 Descending New York Center
Thu 05:03:33 AM 41.1119 -75.1442 106° East 457 526 21,400 -1,513 Descending New York Center
Thu 05:04:32 AM 41.0803 -74.9853 105° East 446 513 19,900 -1,200 Descending New York Center
Thu 05:05:33 AM 41.0522 -74.8294 103° East 436 502 19,000 -446 Descending New York Center
Thu 05:06:33 AM 41.0219 -74.6792 105° East 431 496 19,000  Level New York Center
Thu 05:07:33 AM 40.9953 -74.5403 104° East 431 496 19,000  Level New York Center
Thu 05:08:33 AM 40.9628 -74.3736 104° East 425 489 19,000  Level New York Center
Thu 05:09:07 AM 40.9500 -74.2833 101° East 397 457 19,000  Level New York TRACON
Thu 05:10:01 AM 40.9167 -74.1667 111° Southeast 353 406 19,000  Level New York TRACON
Thu 05:11:01 AM 40.8833 -74.0500 111° Southeast 349 402 19,000  Level New York TRACON
Thu 05:11:49 AM 40.8500 -73.9667 118° Southeast 347 399 19,000 -471 Level New York TRACON
Thu 05:12:43 AM 40.8000 -73.8667 123° Southeast 349 402 18,200 -991 Descending New York TRACON
Thu 05:13:38 AM 40.7667 -73.7500 111° Southeast 358 412 17,200 -1,785 Descending New York TRACON
Thu 05:14:44 AM 40.7167 -73.6667 128° Southeast 341 392 14,600 -2,429 Descending New York TRACON
Thu 05:15:44 AM 40.6333 -73.6167 156° South 307 353 12,100 -2,400 Descending New York TRACON
Thu 05:16:44 AM 40.5667 -73.6333 191° South 266 306 9,800 -2,316 Descending New York TRACON
Thu 05:17:38 AM 40.5000 -73.6500 191° South 254 292 7,700 -2,421 Descending New York TRACON
Thu 05:18:38 AM 40.4500 -73.7167 225° Southwest 258 297 5,200 -2,300 Descending New York TRACON
Thu 05:19:38 AM 40.4167 -73.7833 237° Southwest 256 295 3,100 -1,100 Descending New York TRACON
Thu 05:20:38 AM 40.3833 -73.8667 242° Southwest 220 253 3,000 -56 Descending New York TRACON
Thu 05:21:26 AM 40.3833 -73.9167 270° West 211 243 3,000  Level New York TRACON
Thu 05:22:26 AM 40.4167 -73.9667 311° West 223 257 3,000  Level New York TRACON
Thu 05:23:27 AM 40.4833 -73.9667 360° North 213 245 3,000  Level New York TRACON
Thu 05:24:21 AM 40.5333 -73.9667 360° North 221 254 3,000 -211 Level New York TRACON
Thu 05:25:21 AM 40.5833 -73.9167 37° Northeast 173 199 2,600 -619 Descending New York TRACON
Thu 05:26:27 AM 40.6167 -73.8833 37° Northeast 149 171 1,700 -850 Descending New York TRACON
Thu 05:27:21 AM 40.6500 -73.8667 21° North 137 158 900 -789 Descending New York TRACON
Thu 05:28:21 AM 40.6500 -73.8167 90° East 138 159 200 -700 Descending New York TRACON

Login

Don't have an account? Register now (free) for customized features, flight alerts, and more!